Bladen County Hospital, NC

4:24 PM EST on January 26, 2015 (GMT -0500)
Cape Owen Manor | Change Station
CLOSE
Current Station
Personal Weather Station
Location: Elizabethtown, NC
Elevation: 151 ft
Nearby Weather Stations

Elev 151 ft 34.69 °N, 78.69 °W | Updated 4 minutes ago

Overcast
Overcast
51.3 °F
Feels Like 51.3 °F
N
3.1
Wind Variable Wind from WNW

Today
High -- | Low -- °F
--% Chance of Precip.
Yesterday
High -- | Low -- °F
Precip. -- in
7:16 AM 5:37 PM
Waxing Crescent, 47% visible
Pressure 29.58 in
Visibility 10.0 miles
Clouds Overcast 11000 ft
Dew Point 42 °F
Humidity 72%
Rainfall 0.12 in
Snow Depth Not available.
UV 0 out of 12
Pollen 1.60 out of 12
Air Quality Not available.
Flu Activity Not available.
METAR KEYF 262115Z AUTO 32006KT 10SM OVC110 11/05 A2958 RMK AO2 T01060053

More Conditions Fewer Conditions

Pressure 29.58 in
Visibility 10.0 miles
Clouds Overcast 11000 ft
Dew Point 42 °F
Humidity 72%
Rainfall 0.12 in
Snow Depth Not available.
UV 0 out of 12
Pollen 1.60 out of 12
Air Quality Not available.
Flu Activity Not available.
METAR KEYF 262115Z AUTO 32006KT 10SM OVC110 11/05 A2958 RMK AO2 T01060053

More Conditions Fewer Conditions

10-Day Weather Forecast

Almanac

Astronomy

Jan. 26, 2015 Rise Set
Actual Time
Civil Twilight
Nautical Twilight
Astronomical Twilight
Moon
Length of Visible Light
Length of Day
Tomorrow will be .
, % of the Moon is Illuminated

Today's Extremes

State Highs State Lows

Community

WunderPhotos

Upload Photos

1,790,364 photos uploaded!

WunderBlogs® & News

Nearby

Air Quality

  Air Quality AQ Index Pollutant
Not available.

Snow Depth

Station Depth Elevation

Earthquake Activity

City Distance Mag. Time & Date
Minimum magnitude displayed is 2.5.

Coastal Water Temperatures

Place Temperature

Nearby Weather Stations